Time;durP1;ratioP1;P1;durP2;ratioP2;P2;SDS_P1;SDS_P2;PMS_P1;PMS_P2;Temp;Humidity;BMP_temperature;BMP_pressure;BME280_temperature;BME280_humidity;BME280_pressure;Samples;Min_cycle;Max_cycle;Signal;HPM_P1;HPM_P2
2021/07/05 00:00:07;;;;;;;0.85;0.82;;;;;;;;;;5090302;28;20094;-56
2021/07/05 00:02:34;;;;;;;1.20;0.80;;;;;;;;;;5086457;28;20524;-56
2021/07/05 00:05:00;;;;;;;0.80;0.80;;;;;;;;;;5085502;28;20045;-56
2021/07/05 00:07:27;;;;;;;0.80;0.70;;;;;;;;;;5088881;28;20064;-56
2021/07/05 00:09:54;;;;;;;1.95;0.80;;;;;;;;;;5087953;28;20473;-56
2021/07/05 00:12:21;;;;;;;1.20;1.10;;;;;;;;;;5090908;28;20040;-56
2021/07/05 00:14:48;;;;;;;3.17;1.17;;;;;;;;;;5087375;28;20090;-56
2021/07/05 00:17:15;;;;;;;1.85;0.77;;;;;;;;;;5088813;28;20494;-56
2021/07/05 00:19:42;;;;;;;1.65;0.70;;;;;;;;;;5087806;28;20040;-56
2021/07/05 00:22:08;;;;;;;0.88;0.70;;;;;;;;;;5088818;28;20044;-56
2021/07/05 00:24:35;;;;;;;0.80;0.80;;;;;;;;;;5089040;28;20089;-56
2021/07/05 00:27:02;;;;;;;1.50;0.73;;;;;;;;;;5088959;28;20068;-56
2021/07/05 00:29:29;;;;;;;1.50;0.80;;;;;;;;;;5087821;28;20056;-56
2021/07/05 00:31:56;;;;;;;1.70;0.80;;;;;;;;;;5088508;28;20032;-56
2021/07/05 00:34:22;;;;;;;0.80;0.80;;;;;;;;;;5088765;28;20059;-56
2021/07/05 00:36:49;;;;;;;0.85;0.85;;;;;;;;;;5089348;28;20671;-56
2021/07/05 00:39:16;;;;;;;0.95;0.70;;;;;;;;;;5088415;28;20036;-56
2021/07/05 00:41:43;;;;;;;1.85;0.80;;;;;;;;;;5084043;28;20123;-56
2021/07/05 00:44:10;;;;;;;0.80;0.80;;;;;;;;;;5090164;28;20131;-56
2021/07/05 00:46:36;;;;;;;0.88;0.80;;;;;;;;;;5088930;28;20044;-56
2021/07/05 00:49:03;;;;;;;1.00;1.00;;;;;;;;;;5083038;28;20036;-56
2021/07/05 00:51:31;;;;;;;0.90;0.90;;;;;;;;;;5089788;28;20044;-56
2021/07/05 00:53:57;;;;;;;0.88;0.80;;;;;;;;;;5086859;28;20423;-56
2021/07/05 00:56:24;;;;;;;0.98;0.88;;;;;;;;;;5092145;28;20070;-56
2021/07/05 00:58:51;;;;;;;2.38;1.85;;;;;;;;;;5091674;28;20494;-56
2021/07/05 01:01:18;;;;;;;1.15;0.85;;;;;;;;;;5089396;28;20055;-56
2021/07/05 01:03:45;;;;;;;0.80;0.80;;;;;;;;;;5093054;28;20077;-56
2021/07/05 01:06:12;;;;;;;0.88;0.80;;;;;;;;;;5090922;28;20111;-55
2021/07/05 01:08:39;;;;;;;2.60;0.85;;;;;;;;;;5090749;28;20097;-55
2021/07/05 01:11:06;;;;;;;3.55;1.00;;;;;;;;;;5089183;28;20539;-55
2021/07/05 01:13:33;;;;;;;1.10;1.00;;;;;;;;;;5072648;28;20376;-56
2021/07/05 01:16:00;;;;;;;1.05;0.95;;;;;;;;;;5092404;28;20032;-55
2021/07/05 01:18:28;;;;;;;1.25;0.85;;;;;;;;;;5091907;28;20511;-57
2021/07/05 01:20:59;;;;;;;3.08;1.20;;;;;;;;;;5075405;28;20041;-56
2021/07/05 01:23:26;;;;;;;1.58;0.90;;;;;;;;;;5091294;28;20119;-56
2021/07/05 01:25:52;;;;;;;0.80;0.80;;;;;;;;;;5086829;28;20131;-56
2021/07/05 01:28:19;;;;;;;0.80;0.80;;;;;;;;;;5093156;28;20048;-56
2021/07/05 01:30:47;;;;;;;0.82;0.82;;;;;;;;;;5091538;28;20113;-56
2021/07/05 01:33:15;;;;;;;0.93;0.80;;;;;;;;;;5092402;28;20040;-56
2021/07/05 01:35:42;;;;;;;1.00;0.90;;;;;;;;;;5089985;28;20112;-56
2021/07/05 01:38:10;;;;;;;3.00;1.10;;;;;;;;;;5092212;28;20032;-55
2021/07/05 01:40:37;;;;;;;0.80;0.80;;;;;;;;;;5098148;28;20051;-56
2021/07/05 01:43:04;;;;;;;2.70;0.90;;;;;;;;;;5091116;28;20050;-56
2021/07/05 01:45:31;;;;;;;0.90;0.90;;;;;;;;;;5085080;28;20082;-56
2021/07/05 01:47:59;;;;;;;1.25;1.25;;;;;;;;;;5091202;28;20040;-56
2021/07/05 01:50:25;;;;;;;1.00;1.00;;;;;;;;;;5090633;28;20137;-56
2021/07/05 01:52:52;;;;;;;1.20;1.10;;;;;;;;;;5079486;28;20093;-56
2021/07/05 01:55:28;;;;;;;1.88;1.02;;;;;;;;;;5088929;28;20098;-56
2021/07/05 01:57:55;;;;;;;0.95;0.80;;;;;;;;;;5082080;28;20075;-55
2021/07/05 02:00:22;;;;;;;1.23;1.13;;;;;;;;;;5096937;28;20036;-56
2021/07/05 02:02:49;;;;;;;0.90;0.90;;;;;;;;;;5092184;28;20050;-56
2021/07/05 02:05:17;;;;;;;0.80;0.80;;;;;;;;;;5091686;28;20097;-56
2021/07/05 02:07:44;;;;;;;0.90;0.90;;;;;;;;;;5089298;28;20032;-56
2021/07/05 02:10:13;;;;;;;1.33;0.80;;;;;;;;;;5091884;28;20060;-56
2021/07/05 02:12:40;;;;;;;0.90;0.90;;;;;;;;;;5082328;28;20028;-56
2021/07/05 02:15:09;;;;;;;1.67;0.90;;;;;;;;;;5091351;28;20040;-56
2021/07/05 02:17:36;;;;;;;0.90;0.90;;;;;;;;;;5091062;28;20070;-55
2021/07/05 02:20:07;;;;;;;0.82;0.82;;;;;;;;;;5089375;28;20047;-55
2021/07/05 02:22:34;;;;;;;0.80;0.80;;;;;;;;;;5090828;28;20036;-56
2021/07/05 02:25:02;;;;;;;1.48;0.90;;;;;;;;;;5092116;28;20091;-56
2021/07/05 02:27:29;;;;;;;1.15;0.90;;;;;;;;;;5088235;28;20381;-56
2021/07/05 02:29:55;;;;;;;0.90;0.90;;;;;;;;;;5082563;28;20075;-56
2021/07/05 02:32:22;;;;;;;0.90;0.90;;;;;;;;;;5090431;28;20047;-55
2021/07/05 02:34:49;;;;;;;0.90;0.90;;;;;;;;;;5088592;28;20075;-56
2021/07/05 02:37:15;;;;;;;1.05;1.05;;;;;;;;;;5092164;28;20131;-56
2021/07/05 02:39:42;;;;;;;1.08;0.90;;;;;;;;;;5089643;28;20036;-56
2021/07/05 02:42:09;;;;;;;1.40;1.30;;;;;;;;;;5078501;28;20043;-55
2021/07/05 02:44:36;;;;;;;2.53;1.10;;;;;;;;;;5091327;28;20412;-55
2021/07/05 02:47:02;;;;;;;0.90;0.90;;;;;;;;;;5089255;28;20118;-56
2021/07/05 02:49:29;;;;;;;1.00;1.00;;;;;;;;;;5085635;28;20350;-56
2021/07/05 02:51:56;;;;;;;2.88;1.00;;;;;;;;;;5090764;28;20075;-56
2021/07/05 02:54:23;;;;;;;2.72;1.88;;;;;;;;;;5089171;28;20123;-56
2021/07/05 02:56:50;;;;;;;1.67;1.05;;;;;;;;;;5087195;28;20074;-55
2021/07/05 02:59:17;;;;;;;1.58;0.90;;;;;;;;;;5072234;28;20040;-56
2021/07/05 03:01:44;;;;;;;0.90;0.90;;;;;;;;;;5088961;28;20048;-56
2021/07/05 03:04:11;;;;;;;0.90;0.90;;;;;;;;;;5088540;28;20040;-56
2021/07/05 03:06:38;;;;;;;1.10;1.10;;;;;;;;;;5089449;28;20044;-56
2021/07/05 03:09:04;;;;;;;1.10;1.10;;;;;;;;;;5080085;28;20448;-55
2021/07/05 03:11:31;;;;;;;1.63;1.00;;;;;;;;;;5083353;28;20048;-56
2021/07/05 03:13:58;;;;;;;1.25;1.25;;;;;;;;;;5088998;28;20572;-55
2021/07/05 03:16:25;;;;;;;0.90;0.90;;;;;;;;;;5086124;28;20033;-56
2021/07/05 03:18:52;;;;;;;1.10;1.10;;;;;;;;;;5086948;28;20115;-56
2021/07/05 03:21:19;;;;;;;2.40;1.10;;;;;;;;;;5089584;28;20071;-56
2021/07/05 03:23:46;;;;;;;1.27;1.20;;;;;;;;;;5087549;28;20093;-56
2021/07/05 03:26:13;;;;;;;0.90;0.90;;;;;;;;;;5088429;28;20040;-56
2021/07/05 03:28:40;;;;;;;1.30;1.20;;;;;;;;;;5084171;28;20564;-55
2021/07/05 03:31:07;;;;;;;2.03;1.15;;;;;;;;;;5087009;28;20024;-55
2021/07/05 03:33:34;;;;;;;1.20;1.10;;;;;;;;;;5079862;28;20036;-56
2021/07/05 03:36:01;;;;;;;1.40;1.00;;;;;;;;;;5084931;28;20135;-56
2021/07/05 03:38:27;;;;;;;1.00;1.00;;;;;;;;;;5089072;28;20090;-56
2021/07/05 03:40:54;;;;;;;1.20;1.20;;;;;;;;;;5084124;28;20048;-56
2021/07/05 03:43:21;;;;;;;1.10;1.10;;;;;;;;;;5083430;28;20526;-56
2021/07/05 03:45:48;;;;;;;1.13;1.13;;;;;;;;;;5082945;28;20074;-56
2021/07/05 03:48:15;;;;;;;1.40;1.30;;;;;;;;;;5088287;28;20102;-56
2021/07/05 03:50:42;;;;;;;1.10;1.10;;;;;;;;;;5089278;28;20071;-56
2021/07/05 03:53:08;;;;;;;1.25;1.10;;;;;;;;;;5090452;28;20059;-56
2021/07/05 03:55:36;;;;;;;1.20;1.10;;;;;;;;;;5090470;28;20036;-56
2021/07/05 03:58:04;;;;;;;1.00;1.00;;;;;;;;;;5078579;28;20048;-56
2021/07/05 04:00:37;;;;;;;1.02;1.02;;;;;;;;;;5088819;28;20074;-56
2021/07/05 04:03:05;;;;;;;3.90;2.13;;;;;;;;;;5086907;28;20064;-56
2021/07/05 04:05:32;;;;;;;1.17;1.13;;;;;;;;;;5089475;28;20415;-55
2021/07/05 04:07:59;;;;;;;2.08;1.42;;;;;;;;;;5087922;28;20090;-56
2021/07/05 04:10:26;;;;;;;2.25;1.20;;;;;;;;;;5073406;28;20111;-55
2021/07/05 04:12:53;;;;;;;1.67;1.52;;;;;;;;;;5086389;28;20162;-56
2021/07/05 04:15:20;;;;;;;1.85;1.13;;;;;;;;;;5089881;28;20090;-56
2021/07/05 04:17:47;;;;;;;1.30;1.20;;;;;;;;;;5077419;28;20392;-56
2021/07/05 04:20:16;;;;;;;4.43;1.10;;;;;;;;;;5082529;28;20032;-56
2021/07/05 04:22:43;;;;;;;1.33;1.30;;;;;;;;;;5089813;28;20044;-55
2021/07/05 04:25:11;;;;;;;2.97;1.30;;;;;;;;;;5088898;28;20051;-55
2021/07/05 04:27:38;;;;;;;2.30;1.00;;;;;;;;;;5086394;28;20133;-56
2021/07/05 04:30:06;;;;;;;1.00;1.00;;;;;;;;;;5090065;28;20048;-56
2021/07/05 04:32:36;;;;;;;1.00;1.00;;;;;;;;;;5092100;28;20132;-56
2021/07/05 04:35:04;;;;;;;1.45;1.35;;;;;;;;;;5091811;28;20044;-56
2021/07/05 04:37:31;;;;;;;1.20;1.20;;;;;;;;;;5093732;28;20074;-56
2021/07/05 04:39:57;;;;;;;1.20;1.10;;;;;;;;;;5092661;28;20036;-56
2021/07/05 04:42:24;;;;;;;1.30;1.30;;;;;;;;;;5092544;28;20040;-56
2021/07/05 04:44:51;;;;;;;1.10;1.10;;;;;;;;;;5092536;28;20180;-56
2021/07/05 04:47:19;;;;;;;1.30;1.30;;;;;;;;;;5093195;28;20116;-56
2021/07/05 04:49:46;;;;;;;1.20;1.20;;;;;;;;;;5087618;28;20096;-55
2021/07/05 04:52:13;;;;;;;1.30;1.20;;;;;;;;;;5090415;28;20035;-56
2021/07/05 04:54:40;;;;;;;3.75;1.50;;;;;;;;;;5094527;28;20081;-55
2021/07/05 04:57:08;;;;;;;2.05;1.10;;;;;;;;;;5094011;28;20036;-56
2021/07/05 04:59:36;;;;;;;1.10;1.10;;;;;;;;;;5072186;28;20033;-57
2021/07/05 05:02:03;;;;;;;1.10;1.10;;;;;;;;;;5089586;28;20044;-57
2021/07/05 05:04:30;;;;;;;1.58;1.27;;;;;;;;;;5085729;28;20526;-56
2021/07/05 05:06:56;;;;;;;1.00;1.00;;;;;;;;;;5093035;28;20093;-56
2021/07/05 05:09:24;;;;;;;2.88;0.90;;;;;;;;;;5091255;28;20107;-55
2021/07/05 05:11:51;;;;;;;1.92;1.20;;;;;;;;;;5080767;28;20139;-56
2021/07/05 05:14:18;;;;;;;0.90;0.90;;;;;;;;;;5094158;28;20372;-56
2021/07/05 05:16:45;;;;;;;1.70;1.10;;;;;;;;;;5091588;28;20032;-56
2021/07/05 05:19:12;;;;;;;1.08;1.02;;;;;;;;;;5090116;28;20093;-56
2021/07/05 05:21:39;;;;;;;1.05;1.05;;;;;;;;;;5092647;28;20439;-56
2021/07/05 05:24:06;;;;;;;4.68;1.15;;;;;;;;;;5090173;28;20111;-58
2021/07/05 05:26:33;;;;;;;6.53;1.02;;;;;;;;;;5093749;28;20117;-58
2021/07/05 05:29:00;;;;;;;1.40;1.30;;;;;;;;;;5092817;28;20094;-58
2021/07/05 05:31:27;;;;;;;2.25;0.98;;;;;;;;;;5082531;28;20033;-59
2021/07/05 05:33:58;;;;;;;2.10;1.10;;;;;;;;;;5093956;28;20052;-57
2021/07/05 05:36:25;;;;;;;1.02;1.02;;;;;;;;;;5088749;28;20056;-58
2021/07/05 05:38:52;;;;;;;1.00;1.00;;;;;;;;;;5093396;28;20051;-58
2021/07/05 05:41:19;;;;;;;1.80;1.10;;;;;;;;;;5093892;28;20043;-57
2021/07/05 05:43:46;;;;;;;1.50;1.00;;;;;;;;;;5086104;28;20040;-58
2021/07/05 05:46:16;;;;;;;2.55;1.02;;;;;;;;;;5092302;28;20794;-58
2021/07/05 05:48:43;;;;;;;1.10;1.00;;;;;;;;;;5091054;28;20056;-58
2021/07/05 05:51:11;;;;;;;1.30;1.20;;;;;;;;;;5093190;28;20039;-57
2021/07/05 05:53:37;;;;;;;2.55;1.25;;;;;;;;;;5092992;28;20093;-57
2021/07/05 05:56:04;;;;;;;1.27;1.10;;;;;;;;;;5092289;28;20131;-58
2021/07/05 05:58:35;;;;;;;1.70;1.20;;;;;;;;;;5092858;28;20057;-58
2021/07/05 06:01:02;;;;;;;1.20;1.10;;;;;;;;;;5086173;28;20101;-57
2021/07/05 06:03:28;;;;;;;1.00;1.00;;;;;;;;;;5092109;28;20063;-58
2021/07/05 06:05:55;;;;;;;1.10;1.10;;;;;;;;;;5090907;28;20044;-57
2021/07/05 06:08:22;;;;;;;1.20;1.17;;;;;;;;;;5092730;28;20039;-58
2021/07/05 06:10:49;;;;;;;2.30;1.10;;;;;;;;;;5091560;28;20513;-57
2021/07/05 06:13:15;;;;;;;1.35;1.20;;;;;;;;;;5089475;28;20036;-58
2021/07/05 06:15:42;;;;;;;1.42;1.42;;;;;;;;;;5091647;28;20490;-57
2021/07/05 06:18:09;;;;;;;4.50;1.10;;;;;;;;;;5092254;28;20040;-57
2021/07/05 06:20:36;;;;;;;1.13;1.10;;;;;;;;;;5090376;28;20032;-58
2021/07/05 06:23:07;;;;;;;1.13;1.13;;;;;;;;;;5079660;28;20048;-58
2021/07/05 06:25:34;;;;;;;2.95;1.10;;;;;;;;;;5088007;28;20040;-57
2021/07/05 06:28:01;;;;;;;5.25;1.13;;;;;;;;;;5072433;28;20045;-57
2021/07/05 06:30:29;;;;;;;2.45;1.05;;;;;;;;;;5090143;28;20097;-58
2021/07/05 06:32:56;;;;;;;1.00;1.00;;;;;;;;;;5089724;28;20032;-58
2021/07/05 06:35:22;;;;;;;3.88;1.05;;;;;;;;;;5102264;28;20124;-58
2021/07/05 06:37:50;;;;;;;1.88;0.90;;;;;;;;;;5093274;28;20097;-57
2021/07/05 06:40:17;;;;;;;0.90;0.90;;;;;;;;;;5078999;28;20447;-58
2021/07/05 06:42:44;;;;;;;1.58;1.10;;;;;;;;;;5090367;28;20048;-58
2021/07/05 06:45:11;;;;;;;2.65;0.88;;;;;;;;;;5089137;28;20093;-58
2021/07/05 06:47:38;;;;;;;2.00;0.88;;;;;;;;;;5097081;28;20353;-57
2021/07/05 06:50:05;;;;;;;0.80;0.80;;;;;;;;;;5071527;28;20428;-58
2021/07/05 06:52:33;;;;;;;0.90;0.80;;;;;;;;;;5074730;28;20032;-58
2021/07/05 06:55:01;;;;;;;0.80;0.80;;;;;;;;;;5080128;28;20119;-58
2021/07/05 06:57:30;;;;;;;0.85;0.85;;;;;;;;;;5080118;28;20068;-58
2021/07/05 06:59:59;;;;;;;0.80;0.80;;;;;;;;;;5104296;28;20040;-58
2021/07/05 07:02:26;;;;;;;0.95;0.95;;;;;;;;;;5089936;28;20518;-57
2021/07/05 07:04:53;;;;;;;0.85;0.85;;;;;;;;;;5091355;28;20038;-59
2021/07/05 07:07:20;;;;;;;0.80;0.80;;;;;;;;;;5077763;28;20079;-58
2021/07/05 07:09:47;;;;;;;1.42;0.70;;;;;;;;;;5083041;28;20066;-58
2021/07/05 07:12:13;;;;;;;0.80;0.80;;;;;;;;;;5072832;28;20090;-58
2021/07/05 07:14:40;;;;;;;1.73;0.70;;;;;;;;;;5090281;28;20068;-58
2021/07/05 07:17:13;;;;;;;1.05;0.70;;;;;;;;;;5093675;28;20040;-58
2021/07/05 07:19:40;;;;;;;;;;;;;;;;;;5064350;28;20064;-57
2021/07/05 07:22:07;;;;;;;1.15;0.80;;;;;;;;;;5084902;28;19981;-57
2021/07/05 07:24:33;;;;;;;1.27;0.80;;;;;;;;;;5072194;28;20073;-58
2021/07/05 07:27:00;;;;;;;0.70;0.70;;;;;;;;;;5090220;28;20046;-58
2021/07/05 07:29:27;;;;;;;1.77;0.80;;;;;;;;;;5088590;28;20060;-58
2021/07/05 07:31:54;;;;;;;1.48;0.70;;;;;;;;;;5098689;28;20508;-58
2021/07/05 07:34:21;;;;;;;0.60;0.60;;;;;;;;;;5076662;28;20040;-58
2021/07/05 07:36:48;;;;;;;2.45;0.80;;;;;;;;;;5065844;28;20075;-58
2021/07/05 07:39:23;;;;;;;0.95;0.77;;;;;;;;;;5079195;28;20067;-58
2021/07/05 07:41:50;;;;;;;0.82;0.70;;;;;;;;;;5077856;28;20106;-58
2021/07/05 07:44:17;;;;;;;0.80;0.70;;;;;;;;;;5068133;28;20083;-58
2021/07/05 07:46:44;;;;;;;0.85;0.65;;;;;;;;;;5069153;28;20032;-58
2021/07/05 07:49:10;;;;;;;1.17;0.80;;;;;;;;;;5068910;28;20044;-58
2021/07/05 07:51:39;;;;;;;0.70;0.70;;;;;;;;;;5062385;28;20123;-58
2021/07/05 07:54:06;;;;;;;0.60;0.60;;;;;;;;;;5062317;28;20115;-58
2021/07/05 07:56:34;;;;;;;1.83;0.60;;;;;;;;;;5070761;28;20486;-57
2021/07/05 07:59:02;;;;;;;0.70;0.70;;;;;;;;;;5069557;28;20049;-58
2021/07/05 08:01:29;;;;;;;0.57;0.57;;;;;;;;;;5068379;28;20086;-57
2021/07/05 08:03:56;;;;;;;0.60;0.60;;;;;;;;;;5071829;28;20047;-58
2021/07/05 08:06:23;;;;;;;0.60;0.60;;;;;;;;;;5070574;28;20169;-58
2021/07/05 08:08:53;;;;;;;0.80;0.80;;;;;;;;;;5067981;28;20041;-58
2021/07/05 08:11:21;;;;;;;0.60;0.60;;;;;;;;;;5061256;28;20108;-58
2021/07/05 08:13:48;;;;;;;0.60;0.60;;;;;;;;;;5057162;28;20044;-58
2021/07/05 08:16:15;;;;;;;0.50;0.50;;;;;;;;;;5070759;28;20047;-59
2021/07/05 08:18:42;;;;;;;1.60;0.60;;;;;;;;;;5064065;28;20039;-58
2021/07/05 08:21:08;;;;;;;1.63;0.70;;;;;;;;;;5068262;28;20140;-58
2021/07/05 08:23:35;;;;;;;0.70;0.70;;;;;;;;;;5069989;28;20036;-58
2021/07/05 08:26:02;;;;;;;0.63;0.60;;;;;;;;;;5066287;28;20045;-58
2021/07/05 08:28:29;;;;;;;2.00;0.60;;;;;;;;;;5084921;28;20090;-58
2021/07/05 08:30:57;;;;;;;1.77;0.50;;;;;;;;;;5068537;28;20033;-58
2021/07/05 08:33:25;;;;;;;0.60;0.60;;;;;;;;;;5051542;28;20097;-58
2021/07/05 08:35:51;;;;;;;1.88;0.50;;;;;;;;;;5080922;28;20088;-59
2021/07/05 08:38:18;;;;;;;0.50;0.50;;;;;;;;;;5087947;28;20115;-58
2021/07/05 08:40:45;;;;;;;0.82;0.50;;;;;;;;;;5100705;28;20035;-58
2021/07/05 08:43:12;;;;;;;0.50;0.50;;;;;;;;;;5085002;28;20032;-58
2021/07/05 08:45:41;;;;;;;0.57;0.50;;;;;;;;;;5074595;28;20139;-59
2021/07/05 08:48:08;;;;;;;0.70;0.70;;;;;;;;;;5089825;28;20089;-57
2021/07/05 08:50:35;;;;;;;1.58;0.50;;;;;;;;;;5088193;28;20036;-59
2021/07/05 08:53:02;;;;;;;0.40;0.40;;;;;;;;;;5089517;28;20036;-59
2021/07/05 08:55:29;;;;;;;0.40;0.40;;;;;;;;;;5088361;28;20447;-59
2021/07/05 08:57:56;;;;;;;1.17;0.40;;;;;;;;;;5086062;28;20037;-57
2021/07/05 09:00:24;;;;;;;0.75;0.75;;;;;;;;;;5076611;28;20642;-58
2021/07/05 09:02:51;;;;;;;0.30;0.30;;;;;;;;;;5081756;28;20040;-58
2021/07/05 09:05:18;;;;;;;0.25;0.25;;;;;;;;;;5088227;28;20553;-58
2021/07/05 09:07:55;;;;;;;1.30;0.30;;;;;;;;;;5087190;28;20652;-59
2021/07/05 09:10:22;;;;;;;0.30;0.30;;;;;;;;;;5087568;28;20040;-58
2021/07/05 09:13:05;;;;;;;0.20;0.20;;;;;;;;;;5090533;28;20570;-58
2021/07/05 09:15:43;;;;;;;0.25;0.25;;;;;;;;;;5085250;28;20090;-59
2021/07/05 09:18:47;;;;;;;0.30;0.30;;;;;;;;;;5090189;28;20039;-58
2021/07/05 09:21:15;;;;;;;0.20;0.20;;;;;;;;;;4980028;28;20083;-59
2021/07/05 09:23:46;;;;;;;0.30;0.30;;;;;;;;;;4982231;28;20062;-58
2021/07/05 09:26:21;;;;;;;0.30;0.30;;;;;;;;;;4990614;28;20117;-58
2021/07/05 09:28:49;;;;;;;0.30;0.30;;;;;;;;;;4989634;28;20053;-58
2021/07/05 09:31:26;;;;;;;0.35;0.35;;;;;;;;;;4990782;28;20085;-59
2021/07/05 09:33:53;;;;;;;0.30;0.30;;;;;;;;;;4974722;28;20061;-59
2021/07/05 09:36:21;;;;;;;0.32;0.30;;;;;;;;;;4981816;28;20043;-58
2021/07/05 09:38:49;;;;;;;0.30;0.30;;;;;;;;;;4982486;28;20126;-58
2021/07/05 09:41:29;;;;;;;1.30;0.30;;;;;;;;;;5003315;28;20563;-58
2021/07/05 09:44:00;;;;;;;0.52;0.25;;;;;;;;;;4987468;28;20109;-58
2021/07/05 09:46:33;;;;;;;0.38;0.30;;;;;;;;;;4988542;28;20359;-58
2021/07/05 09:49:07;;;;;;;1.23;0.30;;;;;;;;;;4989953;28;20081;-58
2021/07/05 09:51:35;;;;;;;0.30;0.30;;;;;;;;;;4990319;28;20045;-58
2021/07/05 09:54:03;;;;;;;1.65;0.30;;;;;;;;;;4990317;28;20046;-59
2021/07/05 09:56:30;;;;;;;0.55;0.30;;;;;;;;;;5020047;28;20110;-59
2021/07/05 09:59:12;;;;;;;0.30;0.30;;;;;;;;;;5084532;28;20044;-57
2021/07/05 10:01:41;;;;;;;0.30;0.30;;;;;;;;;;5075493;28;20044;-58
2021/07/05 10:04:27;;;;;;;1.08;0.30;;;;;;;;;;5092574;28;20077;-58
2021/07/05 10:06:54;;;;;;;;;;;;;;;;;;5092900;28;20380;-58
2021/07/05 10:09:33;;;;;;;1.33;0.50;;;;;;;;;;5089525;28;20371;-58
2021/07/05 10:12:16;;;;;;;0.30;0.30;;;;;;;;;;5089267;28;20446;-58
2021/07/05 10:14:50;;;;;;;0.30;0.30;;;;;;;;;;5080657;28;20044;-59
2021/07/05 10:17:17;;;;;;;0.30;0.30;;;;;;;;;;5088194;28;20032;-59
2021/07/05 10:19:44;;;;;;;0.30;0.30;;;;;;;;;;5089968;28;20079;-58
2021/07/05 10:22:11;;;;;;;0.47;0.30;;;;;;;;;;5087045;28;20123;-58
2021/07/05 10:24:40;;;;;;;0.63;0.30;;;;;;;;;;5090677;28;20419;-58
2021/07/05 10:27:07;;;;;;;0.30;0.20;;;;;;;;;;5080721;28;20118;-59
2021/07/05 10:29:36;;;;;;;0.30;0.30;;;;;;;;;;5090949;28;20044;-58
2021/07/05 10:32:03;;;;;;;1.38;0.30;;;;;;;;;;5090139;28;20115;-58
2021/07/05 10:34:30;;;;;;;0.30;0.30;;;;;;;;;;5088415;28;20040;-59
2021/07/05 10:36:58;;;;;;;1.20;0.30;;;;;;;;;;5090142;28;20039;-58
2021/07/05 10:39:25;;;;;;;1.25;0.20;;;;;;;;;;5085717;28;20067;-59
2021/07/05 10:41:52;;;;;;;0.30;0.30;;;;;;;;;;5092730;28;20372;-58
2021/07/05 10:44:38;;;;;;;0.30;0.30;;;;;;;;;;5090064;28;20056;-58
2021/07/05 10:47:06;;;;;;;0.57;0.40;;;;;;;;;;5080736;28;20047;-58
2021/07/05 10:49:35;;;;;;;0.82;0.82;;;;;;;;;;5089118;28;20376;-59
2021/07/05 10:52:06;;;;;;;2.05;0.30;;;;;;;;;;5086509;28;20126;-58
2021/07/05 10:54:42;;;;;;;1.48;0.30;;;;;;;;;;5088453;28;20504;-58
2021/07/05 10:57:09;;;;;;;0.20;0.20;;;;;;;;;;5090375;28;20422;-58
2021/07/05 10:59:37;;;;;;;0.60;0.30;;;;;;;;;;5089055;28;20364;-58
2021/07/05 11:02:22;;;;;;;0.20;0.20;;;;;;;;;;5089359;28;20131;-57
2021/07/05 11:04:55;;;;;;;1.00;0.30;;;;;;;;;;5052236;28;20451;-59
2021/07/05 11:07:42;;;;;;;0.20;0.20;;;;;;;;;;5054019;28;20040;-58
2021/07/05 11:10:17;;;;;;;0.30;0.30;;;;;;;;;;5091031;28;20043;-58
2021/07/05 11:12:55;;;;;;;0.40;0.35;;;;;;;;;;5089065;28;20102;-58
2021/07/05 11:15:57;;;;;;;0.30;0.30;;;;;;;;;;5088597;28;20032;-59
2021/07/05 11:18:36;;;;;;;0.30;0.30;;;;;;;;;;5019292;28;20133;-58
2021/07/05 11:21:22;;;;;;;0.55;0.20;;;;;;;;;;5009340;28;20058;-58
2021/07/05 11:23:56;;;;;;;0.20;0.20;;;;;;;;;;4985949;28;20088;-58
2021/07/05 11:26:24;;;;;;;0.20;0.20;;;;;;;;;;5007454;28;20054;-57
2021/07/05 11:29:09;;;;;;;0.20;0.20;;;;;;;;;;5009043;28;20370;-58
2021/07/05 11:31:47;;;;;;;1.27;0.22;;;;;;;;;;5008934;28;20180;-59
2021/07/05 11:34:26;;;;;;;0.30;0.30;;;;;;;;;;4992851;28;20053;-58
2021/07/05 11:37:16;;;;;;;0.25;0.25;;;;;;;;;;4999892;28;20128;-57
2021/07/05 11:39:47;;;;;;;0.30;0.30;;;;;;;;;;4994652;28;20142;-57
2021/07/05 11:42:35;;;;;;;0.20;0.20;;;;;;;;;;5027775;28;20041;-58
2021/07/05 11:45:03;;;;;;;2.47;0.30;;;;;;;;;;5027880;28;20962;-58
2021/07/05 11:47:35;;;;;;;0.20;0.20;;;;;;;;;;5027103;28;20065;-58
2021/07/05 11:50:01;;;;;;;;;;;;;;;;;;5029891;28;20045;-57
2021/07/05 11:52:28;;;;;;;0.30;0.30;;;;;;;;;;5060131;28;19985;-58
2021/07/05 11:55:00;;;;;;;0.20;0.20;;;;;;;;;;5075607;28;20041;-57
2021/07/05 11:57:26;;;;;;;0.20;0.20;;;;;;;;;;5090395;28;20096;-57
2021/07/05 12:00:03;;;;;;;0.98;0.30;;;;;;;;;;5089559;28;20086;-58
2021/07/05 12:02:30;;;;;;;0.30;0.30;;;;;;;;;;5088837;28;20047;-58
2021/07/05 12:05:04;;;;;;;1.05;0.30;;;;;;;;;;5088506;28;20485;-58
2021/07/05 12:07:31;;;;;;;0.20;0.20;;;;;;;;;;5082475;28;20086;-59
2021/07/05 12:09:57;;;;;;;0.30;0.30;;;;;;;;;;5089535;28;20435;-58
2021/07/05 12:12:25;;;;;;;0.30;0.30;;;;;;;;;;5097706;28;20096;-58
2021/07/05 12:14:52;;;;;;;0.20;0.20;;;;;;;;;;5086546;28;20085;-58
2021/07/05 12:17:20;;;;;;;2.47;0.40;;;;;;;;;;5089659;28;20074;-58
2021/07/05 12:19:50;;;;;;;0.30;0.30;;;;;;;;;;5087564;28;20425;-58
2021/07/05 12:22:19;;;;;;;0.30;0.30;;;;;;;;;;5088694;28;20090;-58
2021/07/05 12:24:47;;;;;;;0.65;0.30;;;;;;;;;;5090047;28;20046;-58
2021/07/05 12:27:14;;;;;;;0.77;0.30;;;;;;;;;;5090266;28;20534;-58
2021/07/05 12:29:46;;;;;;;1.58;0.30;;;;;;;;;;5087964;28;20054;-58
2021/07/05 12:32:16;;;;;;;0.20;0.20;;;;;;;;;;5088076;28;20111;-58
2021/07/05 12:34:44;;;;;;;1.17;0.30;;;;;;;;;;5089646;28;20056;-58
2021/07/05 12:37:12;;;;;;;0.47;0.30;;;;;;;;;;5089904;28;20490;-58
2021/07/05 12:39:50;;;;;;;0.40;0.30;;;;;;;;;;5075625;28;20044;-45
2021/07/05 12:42:37;;;;;;;0.30;0.30;;;;;;;;;;5088983;28;20447;-57
2021/07/05 12:45:09;;;;;;;0.20;0.20;;;;;;;;;;5089748;28;20043;-42
2021/07/05 12:47:51;;;;;;;0.20;0.20;;;;;;;;;;5086136;28;20056;-44
2021/07/05 12:50:20;;;;;;;0.20;0.20;;;;;;;;;;5088886;28;20028;-42
2021/07/05 12:53:06;;;;;;;0.20;0.20;;;;;;;;;;5092965;28;20048;-42
2021/07/05 12:55:34;;;;;;;0.20;0.20;;;;;;;;;;5092477;28;20107;-43
2021/07/05 12:58:01;;;;;;;2.33;0.20;;;;;;;;;;5092846;28;20419;-43
2021/07/05 13:00:28;;;;;;;0.20;0.20;;;;;;;;;;5092083;28;20040;-42
2021/07/05 13:03:07;;;;;;;0.45;0.20;;;;;;;;;;5095393;28;20428;-45
2021/07/05 13:05:34;;;;;;;0.20;0.20;;;;;;;;;;5089631;28;20288;-42
2021/07/05 13:08:00;;;;;;;0.10;0.10;;;;;;;;;;5085378;28;20353;-42
2021/07/05 13:10:29;;;;;;;0.20;0.20;;;;;;;;;;5085306;28;20063;-41
2021/07/05 13:13:00;;;;;;;0.20;0.20;;;;;;;;;;5083213;28;20519;-41
2021/07/05 13:15:39;;;;;;;0.20;0.20;;;;;;;;;;5091862;28;20039;-42
2021/07/05 13:18:13;;;;;;;0.20;0.20;;;;;;;;;;5095373;28;20043;-41
2021/07/05 13:20:40;;;;;;;0.20;0.20;;;;;;;;;;5091744;28;20118;-43
2021/07/05 13:23:07;;;;;;;0.20;0.20;;;;;;;;;;5083282;28;20032;-42
2021/07/05 13:25:34;;;;;;;0.10;0.10;;;;;;;;;;5085830;28;20040;-42
2021/07/05 13:28:12;;;;;;;0.10;0.10;;;;;;;;;;5074033;28;20044;-41
2021/07/05 13:30:39;;;;;;;0.10;0.10;;;;;;;;;;5093483;28;20067;-43
2021/07/05 13:33:06;;;;;;;0.90;0.20;;;;;;;;;;5088948;28;20059;-43
2021/07/05 13:35:42;;;;;;;0.17;0.17;;;;;;;;;;5093652;28;20044;-41
2021/07/05 13:38:14;;;;;;;0.20;0.20;;;;;;;;;;5091901;28;20579;-41
2021/07/05 13:40:45;;;;;;;0.10;0.10;;;;;;;;;;5083665;28;20123;-42
2021/07/05 13:43:14;;;;;;;0.20;0.20;;;;;;;;;;5093747;28;20093;-40
2021/07/05 13:45:42;;;;;;;0.20;0.20;;;;;;;;;;5091242;28;20044;-42
2021/07/05 13:48:11;;;;;;;0.20;0.20;;;;;;;;;;5091873;28;20067;-43
2021/07/05 13:50:47;;;;;;;0.20;0.20;;;;;;;;;;5086038;28;20430;-41
2021/07/05 13:53:30;;;;;;;0.82;0.20;;;;;;;;;;5087530;28;20319;-41
2021/07/05 13:56:10;;;;;;;0.17;0.17;;;;;;;;;;5093950;28;20478;-42
2021/07/05 13:58:38;;;;;;;0.20;0.20;;;;;;;;;;5090299;28;20036;-41
2021/07/05 14:01:12;;;;;;;0.20;0.20;;;;;;;;;;5090986;28;21240;-44
2021/07/05 14:03:39;;;;;;;0.20;0.20;;;;;;;;;;5076744;28;20044;-42
2021/07/05 14:06:08;;;;;;;0.20;0.20;;;;;;;;;;5088496;28;20134;-41
2021/07/05 14:08:35;;;;;;;0.20;0.20;;;;;;;;;;5083860;28;20044;-42
2021/07/05 14:11:03;;;;;;;0.20;0.20;;;;;;;;;;5091136;28;20094;-41
2021/07/05 14:13:31;;;;;;;0.20;0.20;;;;;;;;;;5089622;28;20510;-44
2021/07/05 14:15:58;;;;;;;0.20;0.20;;;;;;;;;;5092976;28;20477;-42
2021/07/05 14:18:26;;;;;;;0.20;0.20;;;;;;;;;;5087709;28;20036;-42
2021/07/05 14:20:53;;;;;;;0.25;0.20;;;;;;;;;;5088403;28;20060;-42
2021/07/05 14:23:21;;;;;;;0.20;0.20;;;;;;;;;;5085794;28;20064;-41
2021/07/05 14:25:49;;;;;;;0.20;0.20;;;;;;;;;;5091908;28;20081;-43
2021/07/05 14:28:16;;;;;;;0.85;0.20;;;;;;;;;;5092260;28;20037;-42
2021/07/05 14:30:43;;;;;;;0.20;0.20;;;;;;;;;;5090868;28;20070;-42
2021/07/05 14:33:10;;;;;;;0.90;0.20;;;;;;;;;;5090663;28;20709;-42
2021/07/05 14:35:38;;;;;;;0.20;0.20;;;;;;;;;;5081653;28;20400;-41
2021/07/05 14:38:06;;;;;;;0.43;0.22;;;;;;;;;;5085928;28;20439;-41
2021/07/05 14:40:33;;;;;;;0.20;0.20;;;;;;;;;;5086479;28;20044;-41
2021/07/05 14:43:00;;;;;;;0.20;0.20;;;;;;;;;;5092579;28;20035;-42
2021/07/05 14:45:26;;;;;;;3.10;0.40;;;;;;;;;;5089734;28;20470;-43
2021/07/05 14:47:53;;;;;;;0.20;0.20;;;;;;;;;;5090857;28;20048;-44
2021/07/05 14:50:24;;;;;;;0.40;0.25;;;;;;;;;;5092184;28;20040;-42
2021/07/05 14:52:54;;;;;;;0.22;0.20;;;;;;;;;;5084401;28;20036;-42